Latest Weather Observations for Mangrove Mountain

IDN60901

Issued at 11:11 pm EST Wednesday 12 August 2020 (issued every 10 minutes, with the page automatically refreshed every 10 minutes)

About weather observations | Map of Sydney area stations | Latest observations for Sydney area | Other Formats
Station Details ID: 061375 Name: MANGROVE MOUNTAIN AWS Lat: -33.29 Lon: 151.21 Height: 305.0 m
Data from the previous 72 hours. | See also: Recent months at Mangrove Mountain
Date/Time
EST
Temp
°C
App
Temp
°C
Dew
Point
°C
Rel
Hum
%
Delta-T
°C
Wind Press
QNH
hPa
Press
MSL
hPa
Rain since
9am
mm
Dir  Spd
km/h
Gust
km/h
Spd
kts
Gust
kts
12/11:00pm 8.5 8.0 7.7 95 0.4 CALM 0 0 0 0 - - 4.2
12/10:30pm 9.2 8.9 8.6 96 0.3 CALM 0 0 0 0 - - 4.2
12/10:00pm 9.6 9.3 8.8 95 0.4 CALM 0 0 0 0 - - 4.2
12/09:30pm 9.9 9.3 9.0 94 0.5 N 2 4 1 2 - - 4.2
12/09:00pm 10.4 9.9 9.5 94 0.5 NNE 2 4 1 2 - - 4.2
12/08:30pm 11.3 10.2 10.7 96 0.3 ENE 7 15 4 8 - - 4.0
12/08:00pm 11.4 10.9 10.6 95 0.4 ENE 4 7 2 4 - - 2.0
12/07:30pm 11.4 11.5 10.1 92 0.7 CALM 0 0 0 0 - - 1.8
12/07:00pm 12.2 9.6 10.6 90 0.8 NW 15 35 8 19 - - 1.8
12/06:30pm 13.9 12.1 10.9 82 1.6 NE 11 17 6 9 - - 0.0
12/06:00pm 13.6 12.5 10.6 82 1.6 NE 7 11 4 6 - - 0.0
12/05:30pm 13.8 13.0 11.0 83 1.5 ENE 6 9 3 5 - - 0.0
12/05:00pm 14.1 13.6 10.9 81 1.7 ENE 4 6 2 3 - - 0.0
12/04:30pm 15.2 14.4 11.2 77 2.2 ENE 6 13 3 7 - - 0.0
12/04:00pm 15.3 14.6 11.3 77 2.2 ENE 6 9 3 5 - - 0.0
12/03:30pm 15.4 14.8 10.4 72 2.7 NE 4 6 2 3 - - 0.0
12/03:00pm 15.6 14.6 10.2 70 2.9 NNE 6 7 3 4 - - 0.0
12/02:30pm 15.5 14.4 9.8 69 3.0 NNW 6 9 3 5 - - 0.0
12/02:00pm 15.6 14.3 9.9 69 3.0 NNW 7 13 4 7 - - 0.0
12/01:30pm 15.1 13.7 9.5 69 2.9 NNW 7 13 4 7 - - 0.0
12/01:00pm 13.9 12.7 9.5 75 2.3 NNW 6 9 3 5 - - 0.0
12/12:30pm 14.1 11.8 9.1 72 2.6 NNW 11 17 6 9 - - 0.0
12/12:00pm 14.1 12.3 9.3 73 2.5 NW 9 20 5 11 - - 0.0
12/11:30am 13.5 11.6 9.2 75 2.2 NNW 9 19 5 10 - - 0.0
12/11:00am 13.4 11.5 9.1 75 2.2 NNW 9 13 5 7 - - 0.0
12/10:30am 13.0 11.6 9.4 79 1.9 NNW 7 13 4 7 - - 0.0
12/10:00am 12.2 10.7 9.0 81 1.6 NNW 7 11 4 6 - - 0.0
12/09:30am 11.6 10.4 9.5 87 1.1 NNW 6 11 3 6 - - 0.0
12/09:00am 11.2 10.4 9.6 90 0.8 NW 4 7 2 4 - - 0.0
12/08:30am 10.2 8.9 9.1 93 0.6 NW 6 9 3 5 - - 0.0
12/08:00am 9.7 8.4 9.2 97 0.3 NW 6 9 3 5 - - 0.0
12/07:30am 8.9 8.1 8.3 96 0.3 NNW 2 4 1 2 - - 0.0
12/07:00am 8.6 7.3 7.7 94 0.4 NNW 4 6 2 3 - - 0.0
12/06:30am 9.2 8.0 8.0 92 0.6 NNW 4 7 2 4 - - 0.0
12/06:00am 9.3 8.1 8.2 93 0.5 NNE 4 7 2 4 - - 0.0
12/05:30am 9.1 8.2 7.7 91 0.7 N 2 4 1 2 - - 0.0
12/05:00am 9.8 9.0 8.2 90 0.8 N 2 4 1 2 - - 0.0
12/04:30am 10.0 8.9 8.6 91 0.7 N 4 6 2 3 - - 0.0
12/04:00am 9.3 8.0 7.7 90 0.8 NNW 4 4 2 2 - - 0.0
12/03:30am 10.8 9.4 8.9 88 1.0 NNE 6 9 3 5 - - 0.0
12/03:00am 10.4 9.6 8.3 87 1.0 N 2 6 1 3 - - 0.0
12/02:30am 10.4 9.3 8.5 88 0.9 NE 4 7 2 4 - - 0.0
12/02:00am 10.6 9.2 8.7 88 1.0 NNE 6 9 3 5 - - 0.0
12/01:30am 10.5 9.6 9.3 92 0.6 NE 4 7 2 4 - - 0.0
12/01:00am 10.2 9.3 9.3 94 0.5 N 4 6 2 3 - - 0.0
12/12:30am 10.6 9.7 9.4 92 0.6 N 4 7 2 4 - - 0.0
12/12:00am 10.5 9.3 9.7 95 0.4 NE 6 9 3 5 - - 0.0
 
Date/Time
EST
Temp
°C
App
Temp
°C
Dew
Point
°C
Rel
Hum
%
Delta-T
°C
Wind Press
QNH
hPa
Press
MSL
hPa
Rain since
9am
mm
Dir  Spd
km/h
Gust
km/h
Spd
kts
Gust
kts
11/11:30pm 10.0 9.4 9.1 94 0.5 ENE 2 6 1 3 - - 0.0
11/11:00pm 9.9 8.9 9.0 94 0.5 ENE 4 7 2 4 - - 0.0
11/10:30pm 9.8 8.8 8.9 94 0.4 ENE 4 6 2 3 - - 0.0
11/10:00pm 9.6 8.2 8.7 94 0.4 E 6 7 3 4 - - 0.0
11/09:30pm 9.3 8.1 8.1 92 0.6 ENE 4 6 2 3 - - 0.0
11/09:00pm 9.5 8.0 8.3 92 0.6 ENE 6 7 3 4 - - 0.0
11/08:30pm 8.9 7.4 7.0 88 0.9 ENE 4 6 2 3 - - 0.0
11/08:00pm 10.0 8.8 8.1 88 0.9 ENE 4 7 2 4 - - 0.0
11/07:30pm 9.8 8.5 7.6 86 1.1 ENE 4 7 2 4 - - 0.0
11/07:00pm 10.3 9.0 7.7 84 1.3 ENE 4 6 2 3 - - 0.0
11/06:30pm 10.3 8.7 7.9 85 1.2 ENE 6 7 3 4 - - 0.0
11/06:00pm 10.4 9.1 7.5 82 1.4 ENE 4 9 2 5 - - 0.0
11/05:30pm 11.4 10.1 7.7 78 1.8 E 4 7 2 4 - - 0.0
11/05:00pm 12.5 11.5 7.2 70 2.6 ENE 2 6 1 3 - - 0.0
11/04:30pm 13.5 12.8 7.1 65 3.2 CALM 0 0 0 0 - - 0.0
11/04:00pm 14.4 13.1 4.1 50 4.8 CALM 0 0 0 0 - - 0.0
11/03:30pm 15.6 13.3 4.6 48 5.2 ESE 6 7 3 4 - - 0.0
11/03:00pm 16.4 14.9 5.1 47 5.5 WSW 2 4 1 2 - - 0.0
11/02:30pm 15.0 13.8 6.3 56 4.3 W 2 7 1 4 - - 0.0
11/02:00pm 15.0 13.2 5.2 52 4.7 NW 4 7 2 4 - - 0.0
11/01:30pm 14.8 12.6 5.1 52 4.6 SSE 6 9 3 5 - - 0.0
11/01:00pm 15.4 13.4 4.5 48 5.2 NW 4 9 2 5 - - 0.0
11/12:30pm 14.9 13.7 7.9 63 3.5 W 4 7 2 4 - - 0.0
11/12:00pm 13.9 12.5 7.2 64 3.3 SSW 4 7 2 4 - - 0.0
11/11:30am 14.1 12.6 6.7 61 3.6 S 4 7 2 4 - - 0.0
11/11:00am 13.8 12.0 7.1 64 3.3 SW 6 9 3 5 - - 0.0
11/10:30am 13.3 11.6 7.5 68 2.9 W 6 11 3 6 - - 0.0
11/10:00am 13.0 11.7 9.3 78 1.9 WSW 6 11 3 6 - - 0.0
11/09:30am 11.0 9.7 7.7 80 1.6 SW 4 6 2 3 - - 0.0
11/09:00am 10.7 9.8 7.9 83 1.4 SW 2 6 1 3 - - 2.2
11/08:30am 10.3 9.6 8.4 88 0.9 SW 2 7 1 4 - - 2.2
11/08:00am 9.4 8.3 8.3 93 0.5 WSW 4 6 2 3 - - 2.2
11/07:30am 8.8 7.9 7.9 94 0.4 SW 2 6 1 3 - - 2.2
11/07:00am 8.4 7.8 7.5 94 0.4 CALM 0 0 0 0 - - 2.2
11/06:30am 8.4 7.4 7.5 94 0.4 SW 2 6 1 3 - - 2.2
11/06:00am 8.4 7.4 7.5 94 0.4 SW 2 6 1 3 - - 2.2
11/05:30am 8.4 7.5 7.6 95 0.4 S 2 4 1 2 - - 2.2
11/05:00am 8.3 7.0 7.7 96 0.3 SW 4 7 2 4 - - 2.2
11/04:30am 8.2 6.6 7.8 97 0.2 WSW 6 11 3 6 - - 2.2
11/04:00am 8.2 7.0 7.9 98 0.1 SW 4 7 2 4 - - 2.2
11/03:30am 8.2 7.0 8.1 99 0.0 SW 4 6 2 3 - - 2.2
11/03:00am 8.1 6.9 8.0 99 0.0 SW 4 7 2 4 - - 2.2
11/02:30am 8.1 6.5 8.0 99 0.0 SW 6 13 3 7 - - 2.2
11/02:00am 8.3 6.6 8.2 99 0.0 WSW 7 13 4 7 - - 2.2
11/01:30am 8.3 6.2 8.2 99 0.0 WSW 9 13 5 7 - - 2.2
11/01:00am 8.5 6.9 8.2 98 0.1 WSW 6 9 3 5 - - 2.0
11/12:30am 8.3 7.1 7.9 97 0.2 SW 4 7 2 4 - - 2.0
11/12:00am 8.6 7.4 8.2 97 0.2 SSW 4 9 2 5 - - 2.0
 
Date/Time
EST
Temp
°C
App
Temp
°C
Dew
Point
°C
Rel
Hum
%
Delta-T
°C
Wind Press
QNH
hPa
Press
MSL
hPa
Rain since
9am
mm
Dir  Spd
km/h
Gust
km/h
Spd
kts
Gust
kts
10/11:30pm 8.6 7.0 8.2 97 0.2 SSW 6 9 3 5 - - 2.0
10/11:00pm 8.8 7.1 8.4 97 0.2 SSW 7 15 4 8 - - 2.0
10/10:30pm 8.9 7.3 8.6 98 0.1 SSW 7 13 4 7 - - 2.0
10/10:00pm 9.0 7.5 8.6 97 0.2 SSW 6 11 3 6 - - 2.0
10/09:30pm 9.1 7.6 8.5 96 0.3 SW 6 9 3 5 - - 2.0
10/09:00pm 9.3 7.8 8.5 95 0.4 S 6 11 3 6 - - 2.0
10/08:30pm 9.4 7.9 8.5 94 0.4 WSW 6 11 3 6 - - 1.8
10/08:00pm 9.4 7.9 8.5 94 0.4 WSW 6 11 3 6 - - 1.8
10/07:30pm 9.2 7.7 8.3 94 0.4 WSW 6 9 3 5 - - 1.8
10/07:00pm 9.2 7.6 8.0 92 0.6 SSW 6 9 3 5 - - 1.8
10/06:30pm 9.4 7.6 8.0 91 0.7 SW 7 13 4 7 - - 1.8
10/06:00pm 10.0 7.8 7.9 87 1.0 SW 9 17 5 9 - - 1.8
10/05:30pm 10.6 8.8 7.3 80 1.6 SSW 6 15 3 8 - - 1.8
10/05:00pm 11.4 8.1 6.5 72 2.4 S 13 20 7 11 - - 1.8
10/04:30pm 11.7 9.4 7.6 76 2.0 S 9 17 5 9 - - 1.8
10/04:00pm 11.1 9.4 8.5 84 1.3 SSE 7 13 4 7 - - 1.8
10/03:30pm 11.5 9.3 9.2 86 1.2 S 11 20 6 11 - - 1.8
10/03:00pm 10.3 6.8 8.9 91 0.7 SSE 17 32 9 17 - - 1.8
10/02:30pm 11.9 9.9 10.3 90 0.8 S 11 20 6 11 - - 1.4
10/02:00pm 11.9 9.8 9.8 87 1.1 S 11 22 6 12 - - 1.2
10/01:30pm 11.9 8.6 8.2 78 1.8 SW 15 30 8 16 - - 0.2
10/01:00pm 13.8 8.3 5.7 58 3.9 SSE 24 46 13 25 - - 0.0
10/12:54pm 14.1 7.9 6.0 58 3.9 SSE 28 46 15 25 - - 0.0
10/12:30pm 13.9 10.0 7.0 63 3.4 S 17 32 9 17 - - 0.0
10/12:00pm 13.3 8.0 6.9 65 3.1 SSE 24 41 13 22 - - 0.0
10/11:30am 12.7 8.9 7.6 71 2.5 S 17 28 9 15 - - 0.0
10/11:00am 12.6 7.8 7.3 70 2.6 SSE 22 43 12 23 - - 0.0
10/10:30am 12.1 7.5 8.0 76 2.0 SSE 22 43 12 23 - - 0.0
10/10:00am 12.4 8.5 9.6 83 1.4 SSE 20 41 11 22 - - 0.0
10/09:30am 11.7 7.9 9.8 88 1.0 SSE 20 37 11 20 - - 0.0
10/09:00am 11.0 8.0 10.7 98 0.2 SSE 17 30 9 16 - - 50.2
10/08:30am 10.9 7.9 10.7 99 0.1 S 17 35 9 19 - - 49.8
10/08:00am 11.0 7.5 11.0 100 0.0 SSE 20 33 11 18 - - 49.8
10/07:30am 11.3 8.1 11.3 100 0.0 SSE 19 32 10 17 - - 48.0
10/07:00am 11.1 7.9 11.1 100 0.0 SSE 19 33 10 18 - - 46.6
10/06:30am 10.7 8.9 10.7 100 0.0 S 11 24 6 13 - - 41.4
10/06:00am 10.5 8.6 10.5 100 0.0 SSE 11 19 6 10 - - 36.8
10/05:30am 10.5 9.0 10.5 100 0.0 SSE 9 24 5 13 - - 33.2
10/05:00am 10.4 8.5 10.4 100 0.0 SSE 11 17 6 9 - - 32.2
10/04:30am 10.6 7.0 10.6 100 0.0 SSE 20 37 11 20 - - 30.0
10/04:00am 10.5 7.8 10.5 100 0.0 SSE 15 30 8 16 - - 29.6
10/03:30am 10.1 7.7 10.1 100 0.0 SSE 13 30 7 16 - - 29.2
10/03:00am 9.7 8.9 9.7 100 0.0 SSW 4 7 2 4 - - 26.6
10/02:30am 9.1 8.5 9.1 100 0.0 SSW 2 4 1 2 - - 26.2
10/02:00am 8.9 7.9 8.9 100 0.0 SSE 4 9 2 5 - - 25.6
10/01:30am 8.0 7.5 8.0 100 0.0 CALM 0 4 0 2 - - 22.2
10/01:00am 7.5 6.9 7.5 100 0.0 CALM 0 0 0 0 - - 21.4
10/12:30am 7.2 6.2 7.2 100 0.0 SSW 2 4 1 2 - - 20.6
10/12:00am 7.3 6.3 7.3 100 0.0 SSW 2 6 1 3 - - 20.6
 
Date/Time
EST
Temp
°C
App
Temp
°C
Dew
Point
°C
Rel
Hum
%
Delta-T
°C
Wind Press
QNH
hPa
Press
MSL
hPa
Rain since
9am
mm
Dir  Spd
km/h
Gust
km/h
Spd
kts
Gust
kts
09/11:30pm 7.7 6.0 7.7 100 0.0 SSE 6 11 3 6 - - 20.6

Latest Capital City Observations: Canberra | Sydney | Melbourne | Brisbane | Adelaide | Perth | Hobart | Darwin

Other formats

Comma delimited format used in spreadsheet applications
http://www.bom.gov.au/fwo/IDN60901/IDN60901.95774.axf

JavaScript Object Notation format (JSON) in row-major order
http://www.bom.gov.au/fwo/IDN60901/IDN60901.95774.json

Data quality

Most of these data are generated automatically and are frequently updated. Quality checks on data are not normally performed. It is possible for incorrect values to appear. Refer to information at About Latest Weather Observations and please check the disclaimer before using these data.